»·PEaware :: 555Z L52-L88

555Z :: L52-L88

FLIGHT INFORMATION

Flight Status: Arrived
Operator: Unknown
More flights by this operator :: More flights under this callsign
Pilot: Matt L. (20456)
Aircraft: PILATUS PC-12 EAGLE
(PC12)
More flights by this aircraft type
Origin: L52 Oceano Co
United States
Destination: L88 New Cuyama
United States
More flights between these airports :: More routes between these airports
Route: L52,L88
File this flight plan on PilotEdge
Remarks: CAT-01
Altitude:
(Current/Filed)
6,000ft
Speed:
(Current/Filed)
0kts
Departed: 04-Oct-18 06:19 PM
Arrived: 04-Oct-18 06:55 PM
Distance/Time
Traveled:
47nm/0:36
Distance/Time
To Go:
Arrived

Flight Plot

Page will automatically refresh every two minutes.

Flight plan parsing failed; only flown route is shown


Map Options




Map Legend


Flown Route
Filed Route
Departure Airport
Arrival Airport
Navaid (VOR, NDB)
Fix

Horizontal Profiles

Position Reports

Time Latitude Longitude Heading Altitude Ground
Speed
04-Oct-18 17:23 35.103406 -120.624442 32 15ft 0kts
04-Oct-18 17:24 35.103406 -120.624442 32 15ft 0kts
04-Oct-18 17:25 35.103406 -120.624442 32 15ft 0kts
04-Oct-18 17:26 35.103406 -120.624442 32 15ft 0kts
04-Oct-18 17:27 35.103406 -120.624442 32 15ft 0kts
04-Oct-18 17:28 35.103406 -120.624442 32 15ft 0kts
04-Oct-18 17:29 35.103406 -120.624442 32 15ft 0kts
04-Oct-18 17:30 35.103406 -120.624442 32 15ft 0kts
04-Oct-18 17:31 35.103406 -120.624442 32 15ft 0kts
04-Oct-18 17:32 35.103406 -120.624442 32 15ft 0kts
04-Oct-18 17:33 35.103406 -120.624442 32 15ft 0kts
04-Oct-18 17:34 35.103406 -120.624442 32 15ft 0kts
04-Oct-18 17:35 35.103406 -120.624442 32 15ft 0kts
04-Oct-18 17:36 35.103406 -120.624442 32 15ft 0kts
04-Oct-18 17:37 35.103406 -120.624442 32 15ft 0kts
04-Oct-18 17:38 35.103406 -120.624442 32 15ft 0kts
04-Oct-18 17:39 35.103406 -120.624442 32 15ft 0kts
04-Oct-18 17:40 35.103406 -120.624442 32 15ft 0kts
04-Oct-18 17:41 35.103406 -120.624442 32 15ft 0kts
04-Oct-18 17:42 35.103406 -120.624442 32 15ft 0kts
04-Oct-18 17:43 35.103406 -120.624442 32 15ft 0kts
04-Oct-18 17:44 35.103406 -120.624442 32 15ft 0kts
04-Oct-18 17:45 35.103406 -120.624442 32 15ft 0kts
04-Oct-18 17:46 35.103406 -120.624442 32 15ft 0kts
04-Oct-18 17:47 35.103406 -120.624442 32 15ft 0kts
04-Oct-18 17:48 35.103406 -120.624442 32 15ft 0kts
04-Oct-18 17:49 35.103406 -120.624442 32 15ft 0kts
04-Oct-18 17:50 35.103406 -120.624442 32 15ft 0kts
04-Oct-18 17:51 35.103406 -120.624442 32 15ft 0kts
04-Oct-18 17:52 35.103406 -120.624442 32 15ft 0kts
04-Oct-18 17:53 35.103406 -120.624442 32 15ft 0kts
04-Oct-18 17:54 35.103406 -120.624442 32 15ft 0kts
04-Oct-18 17:55 35.103406 -120.624442 32 15ft 0kts
04-Oct-18 17:56 35.103406 -120.624442 32 15ft 0kts
04-Oct-18 17:57 35.103406 -120.624442 32 15ft 0kts
04-Oct-18 17:58 35.103406 -120.624442 32 15ft 0kts
04-Oct-18 17:59 35.103406 -120.624442 32 15ft 0kts
04-Oct-18 18:00 35.103406 -120.624442 32 15ft 0kts
04-Oct-18 18:01 35.103406 -120.624442 32 15ft 0kts
04-Oct-18 18:02 35.103406 -120.624442 32 15ft 0kts
04-Oct-18 18:03 35.103406 -120.624442 32 15ft 0kts
04-Oct-18 18:04 35.103406 -120.624442 32 15ft 0kts
04-Oct-18 18:05 35.103406 -120.624442 32 15ft 0kts
04-Oct-18 18:06 35.103406 -120.624442 32 15ft 0kts
04-Oct-18 18:07 35.103406 -120.624442 32 15ft 0kts
04-Oct-18 18:08 35.103406 -120.624442 32 15ft 0kts
04-Oct-18 18:09 35.103406 -120.624442 32 15ft 0kts
04-Oct-18 18:10 35.103406 -120.624442 32 15ft 0kts
04-Oct-18 18:11 35.103406 -120.624442 32 15ft 0kts
04-Oct-18 18:12 35.103406 -120.624442 32 15ft 0kts
04-Oct-18 18:13 35.103406 -120.624442 32 15ft 0kts
04-Oct-18 18:14 35.103406 -120.624442 32 15ft 0kts
04-Oct-18 18:15 35.103406 -120.624442 32 15ft 0kts
04-Oct-18 18:16 35.103406 -120.624442 32 15ft 0kts
04-Oct-18 18:17 35.103406 -120.624442 32 15ft 0kts
04-Oct-18 18:18 35.103406 -120.624442 32 15ft 0kts
04-Oct-18 18:19 35.103791 -120.624792 305 14ft 0kts
04-Oct-18 18:20 35.103550 -120.625138 208 14ft 0kts
04-Oct-18 18:21 35.095939 -120.613901 132 172ft 106kts
04-Oct-18 18:22 35.082690 -120.601071 232 415ft 102kts
04-Oct-18 18:23 35.097747 -120.615290 308 117ft 77kts
04-Oct-18 18:24 35.102635 -120.622923 290 16ft 6kts
04-Oct-18 18:25 35.102626 -120.623028 243 16ft 0kts
04-Oct-18 18:26 35.102626 -120.623028 243 16ft 0kts
04-Oct-18 18:27 35.102626 -120.623028 243 16ft 0kts
04-Oct-18 18:28 35.102275 -120.622530 210 15ft 0kts
04-Oct-18 18:29 35.102274 -120.622530 210 15ft 0kts
04-Oct-18 18:30 35.102274 -120.622530 210 15ft 0kts
04-Oct-18 18:31 35.101932 -120.622170 171 16ft 2kts
04-Oct-18 18:32 35.101776 -120.622168 198 16ft 0kts
04-Oct-18 18:33 35.100576 -120.621412 122 17ft 17kts
04-Oct-18 18:34 35.099562 -120.619472 100 17ft 0kts
04-Oct-18 18:35 35.101222 -120.621712 302 17ft 62kts
04-Oct-18 18:36 35.117060 -120.633240 137 1059ft 158kts
04-Oct-18 18:37 35.091053 -120.583098 110 1930ft 192kts
04-Oct-18 18:38 35.091320 -120.524198 50 3291ft 175kts
04-Oct-18 18:39 35.120094 -120.475665 52 4258ft 200kts
04-Oct-18 18:40 35.156014 -120.422383 50 4359ft 188kts
04-Oct-18 18:41 35.168737 -120.370642 87 4985ft 158kts
04-Oct-18 18:42 35.170321 -120.320534 97 5127ft 160kts
04-Oct-18 18:43 35.165130 -120.265472 95 5062ft 169kts
04-Oct-18 18:44 35.161213 -120.207346 94 4907ft 172kts
04-Oct-18 18:45 35.151080 -120.151744 112 4991ft 163kts
04-Oct-18 18:46 35.131968 -120.099943 112 4874ft 170kts
04-Oct-18 18:47 35.113047 -120.047967 112 4900ft 167kts
04-Oct-18 18:48 35.095231 -120.001247 120 4921ft 140kts
04-Oct-18 18:49 35.075334 -119.960217 124 4503ft 152kts
04-Oct-18 18:50 35.050189 -119.917987 128 3943ft 157kts
04-Oct-18 18:51 35.022005 -119.878599 127 3429ft 143kts
04-Oct-18 18:52 35.003517 -119.838233 117 2762ft 130kts
04-Oct-18 18:53 34.987566 -119.800429 117 2605ft 124kts
04-Oct-18 18:54 34.972168 -119.761812 117 2709ft 123kts
04-Oct-18 18:55 34.957401 -119.727073 115 2629ft 105kts
04-Oct-18 18:56 34.944244 -119.695906 116 2250ft 101kts
04-Oct-18 18:57 34.939662 -119.685175 308 2175ft 5kts
04-Oct-18 18:58 34.942467 -119.691195 338 2151ft 7kts
04-Oct-18 18:59 34.943596 -119.691195 277 2151ft 0kts
04-Oct-18 19:00 34.943596 -119.691195 277 2151ft 0kts
04-Oct-18 19:01 34.943596 -119.691195 277 2151ft 0kts
04-Oct-18 19:02 34.943596 -119.691195 277 2151ft 0kts
04-Oct-18 19:03 34.943596 -119.691195 277 2151ft 0kts
04-Oct-18 19:04 34.943596 -119.691195 277 2151ft 0kts
04-Oct-18 19:05 34.943596 -119.691195 277 2151ft 0kts
04-Oct-18 19:06 34.943596 -119.691195 277 2151ft 0kts
04-Oct-18 19:07 34.943596 -119.691195 277 2151ft 0kts
04-Oct-18 19:08 34.943937 -119.690788 202 2153ft 0kts
04-Oct-18 19:09 34.943937 -119.690788 202 2153ft 0kts
04-Oct-18 19:10 34.943937 -119.690788 202 2153ft 0kts
04-Oct-18 19:11 34.943937 -119.690788 202 2153ft 0kts
04-Oct-18 19:12 34.943937 -119.690788 202 2153ft 0kts

Navigation Log

Ident Type
Flight plan parsing failed, navigation log unavailable